createdAt,value
2018-05-23T00:01:14.050Z,12.60
2018-05-23T00:03:41.565Z,12.70
2018-05-23T00:06:09.062Z,12.70
2018-05-23T00:08:36.678Z,12.70
2018-05-23T00:11:04.176Z,12.70
2018-05-23T00:13:31.800Z,12.70
2018-05-23T00:15:59.360Z,12.70
2018-05-23T00:18:26.995Z,12.70
2018-05-23T00:20:54.477Z,12.70
2018-05-23T00:23:21.988Z,12.70
2018-05-23T00:25:49.488Z,12.70
2018-05-23T00:28:17.053Z,12.70
2018-05-23T00:30:44.568Z,12.70
2018-05-23T00:33:12.357Z,12.60
2018-05-23T00:35:41.667Z,12.60
2018-05-23T00:38:09.240Z,12.60
2018-05-23T00:40:36.756Z,12.60
2018-05-23T00:43:04.257Z,12.60
2018-05-23T00:45:31.776Z,12.60
2018-05-23T00:47:59.271Z,12.60
2018-05-23T00:50:26.797Z,12.60
2018-05-23T00:52:54.389Z,12.60
2018-05-23T00:55:40.748Z,12.50
2018-05-23T00:58:08.349Z,12.40
2018-05-23T01:00:35.883Z,12.40
2018-05-23T01:03:04.168Z,12.30
2018-05-23T01:05:32.456Z,12.30
2018-05-23T01:08:00.027Z,12.30
2018-05-23T01:10:27.590Z,12.30
2018-05-23T01:12:55.113Z,12.20
2018-05-23T01:15:23.377Z,12.10
2018-05-23T01:17:50.969Z,12.10
2018-05-23T01:20:18.475Z,12.10
2018-05-23T01:22:46.001Z,12.10
2018-05-23T01:25:13.501Z,12.10
2018-05-23T01:27:42.542Z,12.00
2018-05-23T01:30:10.106Z,12.00
2018-05-23T01:32:37.657Z,12.00
2018-05-23T01:35:05.165Z,12.00
2018-05-23T01:37:32.685Z,11.90
2018-05-23T01:40:00.233Z,11.90
2018-05-23T01:42:27.748Z,11.90
2018-05-23T01:44:55.359Z,11.80
2018-05-23T01:47:22.885Z,11.90
2018-05-23T01:49:51.181Z,11.80
2018-05-23T01:52:18.713Z,11.80
2018-05-23T01:54:46.213Z,11.70
2018-05-23T01:57:13.760Z,11.60
2018-05-23T01:59:41.256Z,11.50
2018-05-23T02:02:08.789Z,11.50
2018-05-23T02:04:36.337Z,11.50
2018-05-23T02:07:03.838Z,11.50
2018-05-23T02:09:32.173Z,11.50
2018-05-23T02:11:59.729Z,11.50
2018-05-23T02:14:28.438Z,11.50
2018-05-23T02:16:55.970Z,11.50
2018-05-23T02:19:23.488Z,11.40
2018-05-23T02:21:51.757Z,11.40
2018-05-23T02:24:19.280Z,11.40
2018-05-23T02:26:46.826Z,11.40
2018-05-23T02:29:14.357Z,11.40
2018-05-23T02:31:42.653Z,11.30
2018-05-23T02:34:10.170Z,11.30
2018-05-23T02:36:37.673Z,11.30
2018-05-23T02:39:06.141Z,11.30
2018-05-23T02:41:34.405Z,11.30
2018-05-23T02:44:02.706Z,11.20
2018-05-23T02:46:30.273Z,11.20
2018-05-23T02:48:57.788Z,11.20
2018-05-23T02:51:25.308Z,11.20
2018-05-23T02:53:52.834Z,11.20
2018-05-23T02:56:20.353Z,11.20
2018-05-23T02:58:47.889Z,11.30
2018-05-23T03:01:15.392Z,11.30
2018-05-23T03:03:43.662Z,11.20
2018-05-23T03:06:11.958Z,11.20
2018-05-23T03:08:40.226Z,11.30
2018-05-23T03:11:08.522Z,11.20
2018-05-23T03:13:36.029Z,11.30
2018-05-23T03:16:03.636Z,11.20
2018-05-23T03:18:31.200Z,11.20
2018-05-23T03:20:58.716Z,11.20
2018-05-23T03:23:26.225Z,11.20
2018-05-23T03:25:53.746Z,11.20
2018-05-23T03:28:22.013Z,11.20
2018-05-23T03:30:49.533Z,11.20
2018-05-23T03:33:17.308Z,11.30
2018-05-23T03:35:44.869Z,11.20
2018-05-23T03:38:12.369Z,11.20
2018-05-23T03:40:40.656Z,11.30
2018-05-23T03:43:08.924Z,11.20
2018-05-23T03:45:37.208Z,11.20
2018-05-23T03:48:05.468Z,11.20
2018-05-23T03:50:33.757Z,11.10
2018-05-23T03:53:02.030Z,11.20
2018-05-23T03:55:30.298Z,11.20
2018-05-23T03:57:58.580Z,11.20
2018-05-23T04:00:38.728Z,11.50
2018-05-23T04:03:18.989Z,11.50
2018-05-23T04:05:59.061Z,11.50
2018-05-23T04:08:26.556Z,11.50
2018-05-23T04:10:54.057Z,11.50
2018-05-23T04:13:22.340Z,11.50
2018-05-23T04:15:50.606Z,11.50
2018-05-23T04:18:18.888Z,11.60
2018-05-23T04:20:47.152Z,11.70
2018-05-23T04:23:15.448Z,11.70
2018-05-23T04:25:42.945Z,11.70
2018-05-23T04:28:10.570Z,11.80
2018-05-23T04:30:38.068Z,11.80
2018-05-23T04:33:05.584Z,11.90
2018-05-23T04:35:33.089Z,11.90
2018-05-23T04:38:00.607Z,12.00
2018-05-23T04:40:28.108Z,12.00
2018-05-23T04:42:55.621Z,12.10
2018-05-23T04:45:23.137Z,12.20
2018-05-23T04:47:52.173Z,12.40
2018-05-23T04:50:19.668Z,12.40
2018-05-23T04:52:47.189Z,12.40
2018-05-23T04:55:14.689Z,12.50
2018-05-23T04:57:42.209Z,12.60
2018-05-23T05:00:09.712Z,12.70
2018-05-23T05:02:37.236Z,12.90
2018-05-23T05:05:04.784Z,13.00
2018-05-23T05:07:32.275Z,13.10
2018-05-23T05:09:59.803Z,13.20
2018-05-23T05:12:27.318Z,13.30
2018-05-23T05:14:54.837Z,13.20
2018-05-23T05:17:22.333Z,13.20
2018-05-23T05:19:49.912Z,13.20
2018-05-23T05:22:18.177Z,13.30
2018-05-23T05:24:45.696Z,13.20
2018-05-23T05:27:13.199Z,13.30
2018-05-23T05:29:41.480Z,13.60
2018-05-23T05:32:09.773Z,13.80
2018-05-23T05:34:37.295Z,13.80
2018-05-23T05:37:04.790Z,13.90
2018-05-23T05:39:32.312Z,14.00
2018-05-23T05:41:59.812Z,14.00
2018-05-23T05:44:27.324Z,14.10
2018-05-23T05:46:54.864Z,14.20
2018-05-23T05:49:22.391Z,14.30
2018-05-23T05:51:49.889Z,14.40
2018-05-23T05:54:17.392Z,14.40
2018-05-23T05:56:44.917Z,14.50
2018-05-23T05:59:12.417Z,14.60
2018-05-23T06:01:39.938Z,14.70
2018-05-23T06:04:07.534Z,14.80
2018-05-23T06:06:35.050Z,14.90
2018-05-23T06:09:02.548Z,15.10
2018-05-23T06:11:30.070Z,15.10
2018-05-23T06:13:58.345Z,15.40
2018-05-23T06:16:26.206Z,15.30
2018-05-23T06:18:53.714Z,15.50
2018-05-23T06:21:21.227Z,15.50
2018-05-23T06:23:48.729Z,15.60
2018-05-23T06:26:16.256Z,15.80
2018-05-23T06:28:44.535Z,16.20
2018-05-23T06:31:12.833Z,16.60
2018-05-23T06:33:40.393Z,16.50
2018-05-23T06:36:07.909Z,17.10
2018-05-23T06:38:35.405Z,17.50
2018-05-23T06:41:02.968Z,17.80
2018-05-23T06:43:30.475Z,18.10
2018-05-23T06:45:57.992Z,18.20
2018-05-23T06:48:25.508Z,18.30
2018-05-23T06:50:53.100Z,18.20
2018-05-23T06:53:20.721Z,18.30
2018-05-23T06:55:48.216Z,18.50
2018-05-23T06:58:15.781Z,18.60
2018-05-23T07:00:43.276Z,18.60
2018-05-23T07:03:10.896Z,18.60
2018-05-23T07:05:38.391Z,18.60
2018-05-23T07:08:05.909Z,18.40
2018-05-23T07:10:33.405Z,18.50
2018-05-23T07:13:00.934Z,18.70
2018-05-23T07:15:28.436Z,18.80
2018-05-23T07:17:56.010Z,18.90
2018-05-23T07:20:23.468Z,18.80
2018-05-23T07:22:51.002Z,18.80
2018-05-23T07:25:18.517Z,18.70
2018-05-23T07:27:46.020Z,18.80
2018-05-23T07:30:13.532Z,18.90
2018-05-23T07:32:41.032Z,19.20
2018-05-23T07:35:08.557Z,19.70
2018-05-23T07:37:36.057Z,20.30
2018-05-23T07:40:03.578Z,20.40
2018-05-23T07:42:31.072Z,20.30
2018-05-23T07:44:58.593Z,20.30
2018-05-23T07:47:26.089Z,20.30
2018-05-23T07:49:53.601Z,20.20
2018-05-23T07:52:21.101Z,20.10
2018-05-23T07:54:48.617Z,20.20
2018-05-23T07:57:16.112Z,20.20
2018-05-23T07:59:43.626Z,20.30
2018-05-23T08:02:11.129Z,20.30
2018-05-23T08:04:38.645Z,20.10
2018-05-23T08:07:06.910Z,20.50
2018-05-23T08:09:35.188Z,20.00
2018-05-23T08:12:03.449Z,19.80
2018-05-23T08:14:31.738Z,20.20
2018-05-23T08:16:59.309Z,20.20
2018-05-23T08:19:26.845Z,20.50
2018-05-23T08:21:55.116Z,20.80
2018-05-23T08:24:22.710Z,20.80
2018-05-23T08:26:50.229Z,21.00
2018-05-23T08:29:17.728Z,21.20
2018-05-23T08:31:45.244Z,21.10
2018-05-23T08:34:12.744Z,21.30
2018-05-23T08:36:40.261Z,21.10
2018-05-23T08:39:07.752Z,21.50
2018-05-23T08:41:35.273Z,21.40
2018-05-23T08:44:02.769Z,21.30
2018-05-23T08:46:30.284Z,21.20
2018-05-23T08:48:57.984Z,21.20
2018-05-23T08:51:26.269Z,21.00
2018-05-23T08:53:53.829Z,21.00
2018-05-23T08:56:21.352Z,21.60
2018-05-23T08:58:48.940Z,21.80
2018-05-23T09:01:16.457Z,22.10
2018-05-23T09:03:43.954Z,22.30
2018-05-23T09:06:11.473Z,22.60
2018-05-23T09:08:38.978Z,23.00
2018-05-23T09:11:06.536Z,23.20
2018-05-23T09:13:34.058Z,23.40
2018-05-23T09:16:01.554Z,23.00
2018-05-23T09:18:29.104Z,22.60
2018-05-23T09:20:56.604Z,22.30
2018-05-23T09:23:24.225Z,22.00
2018-05-23T09:25:51.724Z,21.70
2018-05-23T09:28:19.242Z,21.30
2018-05-23T09:30:46.741Z,21.10
2018-05-23T09:33:14.261Z,21.20
2018-05-23T09:35:41.756Z,21.30
2018-05-23T09:38:09.273Z,21.40
2018-05-23T09:40:36.769Z,21.60
2018-05-23T09:43:04.285Z,21.00
2018-05-23T09:45:32.564Z,20.90
2018-05-23T09:48:00.128Z,20.90
2018-05-23T09:50:27.625Z,21.00
2018-05-23T09:52:55.145Z,21.00
2018-05-23T09:55:22.641Z,21.20
2018-05-23T09:57:50.162Z,21.50
2018-05-23T10:00:17.656Z,21.50
2018-05-23T10:02:45.192Z,21.90
2018-05-23T10:05:12.692Z,21.60
2018-05-23T10:07:40.192Z,21.60
2018-05-23T10:10:07.716Z,21.80
2018-05-23T10:12:35.217Z,21.90
2018-05-23T10:15:02.741Z,22.20
2018-05-23T10:17:31.010Z,23.00
2018-05-23T10:19:58.524Z,22.90
2018-05-23T10:22:26.021Z,23.20
2018-05-23T10:24:53.533Z,23.10
2018-05-23T10:27:21.032Z,22.70
2018-05-23T10:29:48.552Z,22.30
2018-05-23T10:32:16.052Z,21.90
2018-05-23T10:34:43.580Z,21.80
2018-05-23T10:37:11.081Z,21.50
2018-05-23T10:39:39.377Z,21.80
2018-05-23T10:42:06.874Z,21.80
2018-05-23T10:44:34.400Z,21.70
2018-05-23T10:47:01.909Z,21.80
2018-05-23T10:49:29.429Z,22.20
2018-05-23T10:51:56.942Z,22.10
2018-05-23T10:54:24.476Z,22.00
2018-05-23T10:56:51.992Z,21.80
2018-05-23T10:59:19.496Z,22.20
2018-05-23T11:01:47.060Z,22.40
2018-05-23T11:04:14.565Z,23.00
2018-05-23T11:06:42.080Z,23.50
2018-05-23T11:09:09.578Z,23.30
2018-05-23T11:11:37.097Z,23.40
2018-05-23T11:14:04.593Z,23.60
2018-05-23T11:16:32.110Z,24.00
2018-05-23T11:18:59.616Z,23.60
2018-05-23T11:21:27.140Z,23.50
2018-05-23T11:23:55.413Z,23.10
2018-05-23T11:26:22.928Z,23.10
2018-05-23T11:28:50.446Z,22.90
2018-05-23T11:31:18.732Z,23.70
2018-05-23T11:33:46.992Z,23.30
2018-05-23T11:36:15.281Z,22.80
2018-05-23T11:38:43.540Z,22.90
2018-05-23T11:41:11.840Z,23.20
2018-05-23T11:43:39.350Z,23.20
2018-05-23T11:46:06.871Z,23.00
2018-05-23T11:48:34.367Z,23.00
2018-05-23T11:51:01.899Z,23.00
2018-05-23T11:53:29.397Z,23.40
2018-05-23T11:55:56.924Z,23.00
2018-05-23T11:58:24.424Z,23.20
2018-05-23T12:00:52.688Z,23.00
2018-05-23T12:03:20.987Z,23.20
2018-05-23T12:05:49.258Z,23.20
2018-05-23T12:08:17.545Z,23.30
2018-05-23T12:10:45.117Z,23.30
2018-05-23T12:13:13.278Z,23.60
2018-05-23T12:15:41.541Z,24.10
2018-05-23T12:18:09.828Z,23.80
2018-05-23T12:20:37.332Z,23.80
2018-05-23T12:23:04.844Z,24.00
2018-05-23T12:25:33.109Z,23.50
2018-05-23T12:28:01.395Z,23.60
2018-05-23T12:30:29.662Z,24.10
2018-05-23T12:32:57.952Z,24.00
2018-05-23T12:35:26.218Z,23.60
2018-05-23T12:37:54.505Z,23.40
2018-05-23T12:40:22.009Z,23.40
2018-05-23T12:42:49.534Z,23.40
2018-05-23T12:45:17.038Z,23.10
2018-05-23T12:47:44.633Z,23.60
2018-05-23T12:50:12.074Z,23.50
2018-05-23T12:52:39.588Z,23.40
2018-05-23T12:55:07.085Z,23.60
2018-05-23T12:57:34.608Z,23.70
2018-05-23T13:00:02.121Z,23.80
2018-05-23T13:02:30.388Z,23.70
2018-05-23T13:04:58.669Z,23.90
2018-05-23T13:07:26.936Z,24.10
2018-05-23T13:09:55.225Z,24.50
2018-05-23T13:12:23.573Z,24.20
2018-05-23T13:14:51.788Z,24.20
2018-05-23T13:17:19.284Z,24.20
2018-05-23T13:19:46.796Z,23.70
2018-05-23T13:22:15.057Z,23.40
2018-05-23T13:24:43.340Z,23.60
2018-05-23T13:27:11.601Z,23.90
2018-05-23T13:29:39.125Z,23.80
2018-05-23T13:32:06.621Z,23.60
2018-05-23T13:34:34.141Z,23.40
2018-05-23T13:37:01.637Z,23.40
2018-05-23T13:39:29.153Z,23.30
2018-05-23T13:41:56.648Z,23.20
2018-05-23T13:44:24.160Z,23.20
2018-05-23T13:46:51.656Z,23.20
2018-05-23T13:49:19.188Z,23.20
2018-05-23T13:51:46.690Z,23.00
2018-05-23T13:54:14.961Z,23.00
2018-05-23T13:56:42.484Z,23.00
2018-05-23T13:59:09.985Z,22.90
2018-05-23T14:01:38.270Z,22.90
2018-05-23T14:04:06.532Z,23.10
2018-05-23T14:06:34.817Z,23.10
2018-05-23T14:09:03.085Z,23.20
2018-05-23T14:11:31.374Z,23.10
2018-05-23T14:13:59.637Z,23.10
2018-05-23T14:16:27.933Z,23.10
2018-05-23T14:18:55.449Z,23.00
2018-05-23T14:21:22.964Z,23.40
2018-05-23T14:23:50.466Z,23.40
2018-05-23T14:26:17.985Z,23.30
2018-05-23T14:28:45.484Z,23.20
2018-05-23T14:31:13.005Z,23.20
2018-05-23T14:33:40.521Z,23.10
2018-05-23T14:36:08.817Z,23.00
2018-05-23T14:38:36.321Z,23.00
2018-05-23T14:41:03.825Z,22.80
2018-05-23T14:43:32.201Z,22.80
2018-05-23T14:45:59.625Z,22.80
2018-05-23T14:48:27.396Z,22.60
2018-05-23T14:50:54.893Z,22.50
2018-05-23T14:53:22.417Z,22.50
2018-05-23T14:55:49.917Z,22.60
2018-05-23T14:58:17.441Z,22.60
2018-05-23T15:00:44.946Z,22.40
2018-05-23T15:03:12.690Z,22.20
2018-05-23T15:05:40.199Z,22.30
2018-05-23T15:08:07.712Z,22.20
2018-05-23T15:10:35.218Z,22.30
2018-05-23T15:13:02.739Z,22.20
2018-05-23T15:15:30.237Z,21.90
2018-05-23T15:17:57.752Z,21.90
2018-05-23T15:20:25.253Z,21.80
2018-05-23T15:22:52.769Z,21.90
2018-05-23T15:25:20.268Z,21.70
2018-05-23T15:27:47.785Z,21.60
2018-05-23T15:30:15.280Z,21.40
2018-05-23T15:32:42.812Z,21.40
2018-05-23T15:35:10.363Z,21.30
2018-05-23T15:37:38.588Z,21.10
2018-05-23T15:40:06.113Z,21.10
2018-05-23T15:42:33.616Z,21.10
2018-05-23T15:45:01.902Z,20.90
2018-05-23T15:47:30.169Z,20.90
2018-05-23T15:49:58.456Z,20.80
2018-05-23T15:52:25.961Z,20.90
2018-05-23T15:54:53.480Z,20.80
2018-05-23T15:57:20.981Z,20.70
2018-05-23T15:59:48.501Z,20.70
2018-05-23T16:02:15.999Z,20.60
2018-05-23T16:04:44.290Z,20.50
2018-05-23T16:07:11.798Z,20.50
2018-05-23T16:09:39.316Z,20.50
2018-05-23T16:12:06.827Z,20.40
2018-05-23T16:14:34.345Z,20.20
2018-05-23T16:17:02.614Z,19.90
2018-05-23T16:19:30.904Z,19.70
2018-05-23T16:21:59.618Z,19.80
2018-05-23T16:24:27.132Z,19.70
2018-05-23T16:26:54.640Z,19.40
2018-05-23T16:29:22.156Z,19.20
2018-05-23T16:31:50.421Z,18.70
2018-05-23T16:34:17.953Z,18.70
2018-05-23T16:36:45.460Z,18.50
2018-05-23T16:39:13.753Z,18.30
2018-05-23T16:41:41.252Z,18.20
2018-05-23T16:44:08.761Z,18.00
2018-05-23T16:46:36.284Z,18.00
2018-05-23T16:49:03.784Z,18.10
2018-05-23T16:51:31.305Z,17.90
2018-05-23T16:53:58.805Z,17.60
2018-05-23T16:56:26.320Z,17.50
2018-05-23T16:58:53.812Z,17.50
2018-05-23T17:01:21.334Z,17.50
2018-05-23T17:03:48.838Z,17.50
2018-05-23T17:06:16.381Z,17.30
2018-05-23T17:08:43.876Z,17.30
2018-05-23T17:11:11.391Z,17.10
2018-05-23T17:13:39.657Z,17.00
2018-05-23T17:16:07.953Z,17.00
2018-05-23T17:18:35.453Z,17.00
2018-05-23T17:21:02.977Z,17.00
2018-05-23T17:23:30.486Z,17.00
2018-05-23T17:25:58.004Z,17.00
2018-05-23T17:28:25.516Z,17.00
2018-05-23T17:30:53.809Z,17.30
2018-05-23T17:33:22.112Z,17.10
2018-05-23T17:35:49.621Z,17.10
2018-05-23T17:38:17.128Z,17.10
2018-05-23T17:40:44.649Z,17.10
2018-05-23T17:43:12.924Z,17.10
2018-05-23T17:45:41.246Z,17.10
2018-05-23T17:48:08.745Z,17.10
2018-05-23T17:50:36.249Z,17.20
2018-05-23T17:53:03.772Z,17.20
2018-05-23T17:55:32.044Z,17.30
2018-05-23T17:57:59.573Z,17.30
2018-05-23T18:00:27.072Z,17.30
2018-05-23T18:02:55.365Z,17.20
2018-05-23T18:05:22.865Z,17.10
2018-05-23T18:07:50.388Z,17.00
2018-05-23T18:10:17.893Z,17.00
2018-05-23T18:12:45.412Z,16.90
2018-05-23T18:15:12.920Z,16.70
2018-05-23T18:17:40.534Z,16.70
2018-05-23T18:20:07.968Z,16.60
2018-05-23T18:22:35.493Z,16.50
2018-05-23T18:25:03.000Z,16.50
2018-05-23T18:27:30.530Z,16.50
2018-05-23T18:29:58.801Z,16.10
2018-05-23T18:32:27.089Z,16.10
2018-05-23T18:34:55.361Z,16.10
2018-05-23T18:37:23.649Z,16.20
2018-05-23T18:39:51.152Z,16.20
2018-05-23T18:42:18.682Z,16.30
2018-05-23T18:44:46.184Z,16.20
2018-05-23T18:47:13.710Z,16.20
2018-05-23T18:49:41.228Z,16.10
2018-05-23T18:52:09.520Z,16.20
2018-05-23T18:54:37.080Z,16.20
2018-05-23T18:57:04.941Z,15.90
2018-05-23T18:59:33.208Z,15.50
2018-05-23T19:02:01.471Z,15.30
2018-05-23T19:04:29.778Z,15.30
2018-05-23T19:06:57.335Z,15.30
2018-05-23T19:09:24.893Z,15.20
2018-05-23T19:11:52.449Z,15.10
2018-05-23T19:14:20.017Z,15.10
2018-05-23T19:16:47.512Z,15.00
2018-05-23T19:19:15.033Z,15.00
2018-05-23T19:21:42.535Z,14.90
2018-05-23T19:24:10.048Z,14.90
2018-05-23T19:26:37.549Z,14.90
2018-05-23T19:29:05.059Z,14.90
2018-05-23T19:31:32.617Z,14.80
2018-05-23T19:34:00.172Z,14.70
2018-05-23T19:36:27.681Z,14.70
2018-05-23T19:38:55.205Z,14.70
2018-05-23T19:41:22.763Z,14.70
2018-05-23T19:43:50.217Z,14.60
2018-05-23T19:46:17.737Z,14.60
2018-05-23T19:48:45.228Z,14.50
2018-05-23T19:51:12.741Z,14.50
2018-05-23T19:53:40.240Z,14.40
2018-05-23T19:56:07.753Z,14.40
2018-05-23T19:58:35.248Z,14.40
2018-05-23T20:01:03.528Z,14.30
2018-05-23T20:03:31.022Z,14.30
2018-05-23T20:05:59.375Z,14.30
2018-05-23T20:08:26.873Z,14.30
2018-05-23T20:10:54.384Z,14.30
2018-05-23T20:13:21.880Z,14.30
2018-05-23T20:15:49.392Z,14.30
2018-05-23T20:18:17.652Z,14.20
2018-05-23T20:20:46.018Z,14.30
2018-05-23T20:23:13.450Z,14.30
2018-05-23T20:25:40.965Z,14.30
2018-05-23T20:28:08.456Z,14.20
2018-05-23T20:30:35.983Z,14.10
2018-05-23T20:33:03.480Z,14.10
2018-05-23T20:35:31.001Z,14.10
2018-05-23T20:37:58.520Z,14.00
2018-05-23T20:40:26.017Z,14.00
2018-05-23T20:42:53.537Z,14.00
2018-05-23T20:45:21.037Z,14.00
2018-05-23T20:47:48.553Z,13.90
2018-05-23T20:50:16.052Z,13.90
2018-05-23T20:52:43.565Z,13.90
2018-05-23T20:55:11.060Z,13.90
2018-05-23T20:57:38.621Z,13.90
2018-05-23T21:00:06.190Z,13.80
2018-05-23T21:02:33.740Z,13.80
2018-05-23T21:05:01.279Z,13.70
2018-05-23T21:07:28.776Z,13.60
2018-05-23T21:09:56.280Z,13.60
2018-05-23T21:12:23.873Z,13.60
2018-05-23T21:14:51.441Z,13.60
2018-05-23T21:17:18.960Z,13.60
2018-05-23T21:19:46.549Z,13.60
2018-05-23T21:22:14.060Z,13.60
2018-05-23T21:24:41.552Z,13.50
2018-05-23T21:27:09.845Z,13.50
2018-05-23T21:29:37.400Z,13.50
2018-05-23T21:32:04.916Z,13.50
2018-05-23T21:34:32.469Z,13.40
2018-05-23T21:36:59.977Z,13.40
2018-05-23T21:39:27.481Z,13.40
2018-05-23T21:41:54.993Z,13.40
2018-05-23T21:44:22.522Z,13.40
2018-05-23T21:46:50.025Z,13.40
2018-05-23T21:49:17.538Z,13.40
2018-05-23T21:51:45.032Z,13.30
2018-05-23T21:54:12.549Z,13.30
2018-05-23T21:56:40.045Z,13.30
2018-05-23T21:59:07.569Z,13.30
2018-05-23T22:01:35.064Z,13.30
2018-05-23T22:04:02.583Z,13.30
2018-05-23T22:06:30.097Z,13.30
2018-05-23T22:08:57.613Z,13.20
2018-05-23T22:11:25.882Z,13.20
2018-05-23T22:13:54.168Z,13.20
2018-05-23T22:16:22.429Z,13.20
2018-05-23T22:18:49.948Z,13.10
2018-05-23T22:21:17.448Z,13.10
2018-05-23T22:23:44.956Z,13.10
2018-05-23T22:26:12.452Z,13.10
2018-05-23T22:28:39.972Z,13.10
2018-05-23T22:31:07.477Z,13.10
2018-05-23T22:33:35.001Z,13.10
2018-05-23T22:36:02.607Z,13.10
2018-05-23T22:38:30.048Z,13.10
2018-05-23T22:40:57.553Z,13.10
2018-05-23T22:43:25.105Z,13.10
2018-05-23T22:45:52.620Z,13.10
2018-05-23T22:48:20.121Z,13.10
2018-05-23T22:50:47.676Z,13.00
2018-05-23T22:53:15.177Z,12.90
2018-05-23T22:55:42.692Z,12.90
2018-05-23T22:58:10.250Z,12.90
2018-05-23T23:00:37.811Z,12.90
2018-05-23T23:03:05.308Z,12.90
2018-05-23T23:05:32.828Z,12.80
2018-05-23T23:08:00.339Z,12.90
2018-05-23T23:10:29.373Z,12.80
2018-05-23T23:12:56.871Z,12.80
2018-05-23T23:15:24.389Z,12.70
2018-05-23T23:17:52.660Z,12.70
2018-05-23T23:20:20.944Z,12.70
2018-05-23T23:22:48.445Z,12.70
2018-05-23T23:25:15.963Z,12.70
2018-05-23T23:27:43.555Z,12.60
2018-05-23T23:30:11.008Z,12.60
2018-05-23T23:32:38.535Z,12.60
2018-05-23T23:35:06.097Z,12.50
2018-05-23T23:37:33.618Z,12.60
2018-05-23T23:40:01.130Z,12.60
2018-05-23T23:42:28.658Z,12.60
2018-05-23T23:44:56.932Z,12.50
2018-05-23T23:47:25.220Z,12.50
2018-05-23T23:49:52.729Z,12.50
2018-05-23T23:52:20.250Z,12.50
2018-05-23T23:54:47.756Z,12.50
2018-05-23T23:57:16.788Z,12.50
2018-05-23T23:59:44.353Z,12.50
